Time,TemperatureF,DewpointF,PressureIn,WindDirection,WindDirectionDegrees,WindSpeedMPH,WindSpeedGustMPH,Humidity,HourlyPrecipIn,Conditions,Clouds,dailyrainin,SoftwareType,DateUTC
2013-02-09 00:01:00,39.8,35.7,30.20,ESE,113,0.0,0.0,85,0.00,,,0.00,WUHU216HW,2013-02-09 08:01:00,
2013-02-09 00:06:00,39.8,35.7,30.21,ENE,68,0.0,0.0,85,0.00,,,0.00,WUHU216HW,2013-02-09 08:06:00,
2013-02-09 00:11:00,39.6,35.5,30.21,ENE,68,0.0,0.0,85,0.00,,,0.00,WUHU216HW,2013-02-09 08:11:00,
2013-02-09 00:16:00,39.6,35.5,30.21,ENE,68,0.0,0.0,85,0.00,,,0.00,WUHU216HW,2013-02-09 08:16:00,
2013-02-09 00:21:00,39.6,35.5,30.20,NW,315,0.0,0.2,85,0.00,,,0.00,WUHU216HW,2013-02-09 08:21:00,
2013-02-09 00:27:00,39.6,35.7,30.21,WNW,293,0.2,1.3,86,0.00,,,0.00,WUHU216HW,2013-02-09 08:27:00,
2013-02-09 00:32:00,39.6,35.7,30.21,WNW,293,0.0,1.3,86,0.00,,,0.00,WUHU216HW,2013-02-09 08:32:00,
2013-02-09 00:37:00,39.6,35.7,30.20,NNW,338,0.0,0.4,86,0.00,,,0.00,WUHU216HW,2013-02-09 08:37:00,
2013-02-09 00:42:00,39.8,35.9,30.20,NNW,338,0.0,0.2,86,0.00,,,0.00,WUHU216HW,2013-02-09 08:42:00,
2013-02-09 00:47:00,39.8,35.9,30.20,NNW,338,0.0,0.0,86,0.00,,,0.00,WUHU216HW,2013-02-09 08:47:00,
2013-02-09 00:52:00,39.6,35.7,30.20,NNW,338,0.0,0.0,86,0.00,,,0.00,WUHU216HW,2013-02-09 08:52:00,
2013-02-09 00:57:00,39.6,35.7,30.21,NNW,338,0.0,0.2,86,0.00,,,0.00,WUHU216HW,2013-02-09 08:57:00,
2013-02-09 01:02:00,39.6,35.7,30.21,NNW,338,0.0,0.2,86,0.00,,,0.00,WUHU216HW,2013-02-09 09:02:00,
2013-02-09 01:07:00,39.6,35.7,30.20,NNW,338,0.0,0.0,86,0.00,,,0.00,WUHU216HW,2013-02-09 09:07:00,
2013-02-09 01:12:00,39.6,35.7,30.20,NNW,338,0.0,0.0,86,0.00,,,0.00,WUHU216HW,2013-02-09 09:12:00,
2013-02-09 01:17:00,39.6,35.7,30.20,NNW,338,0.0,0.0,86,0.00,,,0.00,WUHU216HW,2013-02-09 09:17:00,
2013-02-09 01:22:00,39.6,35.7,30.20,NNW,338,0.0,0.0,86,0.00,,,0.00,WUHU216HW,2013-02-09 09:22:00,
2013-02-09 01:27:00,39.4,35.6,30.20,NNW,338,0.0,0.2,86,0.00,,,0.00,WUHU216HW,2013-02-09 09:27:00,
2013-02-09 01:32:00,39.4,35.6,30.20,NNW,338,0.0,0.2,86,0.00,,,0.00,WUHU216HW,2013-02-09 09:32:00,
2013-02-09 01:38:00,39.4,35.6,30.21,NNW,338,0.0,0.0,86,0.00,,,0.00,WUHU216HW,2013-02-09 09:38:00,
2013-02-09 01:43:00,39.4,35.6,30.20,NNW,338,0.0,0.0,86,0.00,,,0.00,WUHU216HW,2013-02-09 09:43:00,
2013-02-09 01:48:00,39.6,35.7,30.20,NNW,338,0.0,0.0,86,0.00,,,0.00,WUHU216HW,2013-02-09 09:48:00,
2013-02-09 01:53:00,39.6,35.7,30.20,NNW,338,0.0,0.0,86,0.00,,,0.00,WUHU216HW,2013-02-09 09:53:00,
2013-02-09 01:58:00,39.6,35.7,30.20,NNW,338,0.0,0.0,86,0.00,,,0.00,WUHU216HW,2013-02-09 09:58:00,
2013-02-09 02:03:00,39.6,35.7,30.21,NNW,338,0.0,0.0,86,0.00,,,0.00,WUHU216HW,2013-02-09 10:03:00,
2013-02-09 02:08:00,39.6,35.7,30.21,NNW,338,0.0,0.0,86,0.00,,,0.00,WUHU216HW,2013-02-09 10:08:00,
2013-02-09 02:13:00,39.6,35.7,30.21,NNW,338,0.0,0.0,86,0.00,,,0.00,WUHU216HW,2013-02-09 10:13:00,
2013-02-09 02:18:00,39.6,35.7,30.20,NNW,338,0.0,0.0,86,0.00,,,0.00,WUHU216HW,2013-02-09 10:18:00,
2013-02-09 02:23:00,39.6,35.7,30.21,NNW,338,0.0,0.0,86,0.00,,,0.00,WUHU216HW,2013-02-09 10:23:00,
2013-02-09 02:28:00,39.6,35.7,30.20,NNW,338,0.0,0.0,86,0.00,,,0.00,WUHU216HW,2013-02-09 10:28:00,
2013-02-09 02:33:00,39.6,35.7,30.20,NNW,338,0.0,0.0,86,0.00,,,0.00,WUHU216HW,2013-02-09 10:33:00,
2013-02-09 02:39:00,39.4,35.6,30.20,NNW,338,0.0,0.0,86,0.00,,,0.00,WUHU216HW,2013-02-09 10:39:00,
2013-02-09 02:44:00,39.4,35.6,30.20,NNW,338,0.0,0.0,86,0.00,,,0.00,WUHU216HW,2013-02-09 10:44:00,
2013-02-09 02:49:00,39.4,35.6,30.20,NNW,338,0.0,0.0,86,0.00,,,0.00,WUHU216HW,2013-02-09 10:49:00,
2013-02-09 02:54:00,39.4,35.6,30.20,NNW,338,0.0,0.0,86,0.00,,,0.00,WUHU216HW,2013-02-09 10:54:00,
2013-02-09 02:59:00,39.4,35.8,30.20,NNW,338,0.0,0.0,87,0.00,,,0.00,WUHU216HW,2013-02-09 10:59:00,
2013-02-09 03:04:00,39.4,35.8,30.20,NNW,338,0.0,0.0,87,0.00,,,0.00,WUHU216HW,2013-02-09 11:04:00,
2013-02-09 03:09:00,39.4,35.8,30.20,NNW,338,0.0,0.0,87,0.00,,,0.00,WUHU216HW,2013-02-09 11:09:00,
2013-02-09 03:14:00,39.2,35.6,30.20,NNW,338,0.0,0.0,87,0.00,,,0.00,WUHU216HW,2013-02-09 11:14:00,
2013-02-09 03:19:00,39.4,35.8,30.19,NNW,338,0.0,0.0,87,0.00,,,0.00,WUHU216HW,2013-02-09 11:19:00,
2013-02-09 03:24:00,39.4,35.8,30.19,NNW,338,0.0,0.0,87,0.00,,,0.00,WUHU216HW,2013-02-09 11:24:00,
2013-02-09 03:29:00,39.4,35.8,30.19,NNW,338,0.0,0.0,87,0.00,,,0.00,WUHU216HW,2013-02-09 11:29:00,
2013-02-09 03:34:00,39.4,35.8,30.19,NNW,338,0.0,0.0,87,0.00,,,0.00,WUHU216HW,2013-02-09 11:34:00,
2013-02-09 03:39:00,39.4,35.8,30.19,NNW,338,0.0,0.0,87,0.00,,,0.00,WUHU216HW,2013-02-09 11:39:00,
2013-02-09 03:45:00,39.4,35.8,30.19,NNW,338,0.0,0.0,87,0.00,,,0.00,WUHU216HW,2013-02-09 11:45:00,
2013-02-09 03:50:00,39.4,35.8,30.19,NNW,338,0.0,0.0,87,0.00,,,0.00,WUHU216HW,2013-02-09 11:50:00,
2013-02-09 03:55:00,39.4,35.8,30.19,NNW,338,0.0,0.0,87,0.00,,,0.00,WUHU216HW,2013-02-09 11:55:00,
2013-02-09 04:00:00,39.4,35.8,30.19,NNW,338,0.0,0.0,87,0.00,,,0.00,WUHU216HW,2013-02-09 12:00:00,
2013-02-09 04:05:00,39.4,35.8,30.19,NNW,338,0.0,0.0,87,0.00,,,0.00,WUHU216HW,2013-02-09 12:05:00,
2013-02-09 04:10:00,39.4,35.8,30.19,NNW,338,0.0,0.0,87,0.00,,,0.00,WUHU216HW,2013-02-09 12:10:00,
2013-02-09 04:15:00,39.2,35.6,30.19,NNW,338,0.0,0.0,87,0.00,,,0.00,WUHU216HW,2013-02-09 12:15:00,
2013-02-09 04:20:00,39.2,35.6,30.19,NNW,338,0.0,0.0,87,0.00,,,0.00,WUHU216HW,2013-02-09 12:20:00,
2013-02-09 04:25:00,39.2,36.0,30.19,NNW,338,0.0,0.2,88,0.00,,,0.00,WUHU216HW,2013-02-09 12:25:00,
2013-02-09 04:30:00,39.2,36.0,30.19,NNW,338,0.0,0.2,88,0.00,,,0.00,WUHU216HW,2013-02-09 12:30:00,
2013-02-09 04:36:00,39.2,36.0,30.19,NNW,338,0.0,0.0,88,0.00,,,0.00,WUHU216HW,2013-02-09 12:36:00,
2013-02-09 04:41:00,39.2,36.0,30.19,NNW,338,0.0,0.0,88,0.00,,,0.00,WUHU216HW,2013-02-09 12:41:00,
2013-02-09 04:46:00,39.2,36.0,30.19,NNW,338,0.0,0.0,88,0.00,,,0.00,WUHU216HW,2013-02-09 12:46:00,
2013-02-09 04:51:00,39.2,36.0,30.19,NNW,338,0.0,0.0,88,0.00,,,0.00,WUHU216HW,2013-02-09 12:51:00,
2013-02-09 04:56:00,39.2,36.0,30.19,NNW,338,0.0,0.0,88,0.00,,,0.00,WUHU216HW,2013-02-09 12:56:00,
2013-02-09 05:01:00,39.2,36.0,30.19,NNW,338,0.0,0.0,88,0.00,,,0.00,WUHU216HW,2013-02-09 13:01:00,
2013-02-09 05:06:00,39.2,36.0,30.19,NNW,338,0.0,0.0,88,0.00,,,0.00,WUHU216HW,2013-02-09 13:06:00,
2013-02-09 05:11:00,39.2,36.0,30.19,NNW,338,0.0,0.0,88,0.00,,,0.00,WUHU216HW,2013-02-09 13:11:00,
2013-02-09 05:16:00,39.2,36.0,30.19,NNW,338,0.0,0.0,88,0.00,,,0.00,WUHU216HW,2013-02-09 13:16:00,
2013-02-09 05:21:00,39.2,36.0,30.19,NNW,338,0.0,0.0,88,0.00,,,0.00,WUHU216HW,2013-02-09 13:21:00,
2013-02-09 05:26:00,39.4,36.5,30.19,NNW,338,0.0,0.0,89,0.00,,,0.00,WUHU216HW,2013-02-09 13:26:00,
2013-02-09 05:32:00,39.4,36.5,30.19,NNW,338,0.0,0.0,89,0.01,,,0.01,WUHU216HW,2013-02-09 13:32:00,
2013-02-09 05:37:00,39.2,36.3,30.19,NNW,338,0.0,0.0,89,0.01,,,0.01,WUHU216HW,2013-02-09 13:37:00,
2013-02-09 05:42:00,39.2,36.3,30.19,NNW,338,0.0,0.0,89,0.01,,,0.01,WUHU216HW,2013-02-09 13:42:00,
2013-02-09 05:47:00,39.2,36.3,30.19,ESE,113,0.0,0.4,89,0.01,,,0.01,WUHU216HW,2013-02-09 13:47:00,
2013-02-09 05:52:00,39.2,36.3,30.19,East,90,0.0,0.4,89,0.01,,,0.01,WUHU216HW,2013-02-09 13:52:00,
2013-02-09 05:57:00,39.2,36.3,30.19,East,90,0.0,0.2,89,0.01,,,0.01,WUHU216HW,2013-02-09 13:57:00,
2013-02-09 06:02:00,39.2,36.3,30.20,East,90,0.0,0.0,89,0.01,,,0.01,WUHU216HW,2013-02-09 14:02:00,
2013-02-09 06:07:00,39.2,36.3,30.20,ENE,68,0.0,0.0,89,0.01,,,0.01,WUHU216HW,2013-02-09 14:07:00,
2013-02-09 06:12:00,39.1,36.1,30.20,ENE,68,0.0,0.0,89,0.01,,,0.01,WUHU216HW,2013-02-09 14:12:00,
2013-02-09 06:17:00,39.1,36.1,30.20,ENE,68,0.0,0.0,89,0.02,,,0.02,WUHU216HW,2013-02-09 14:17:00,
2013-02-09 06:22:00,38.9,35.9,30.21,ENE,68,0.0,0.0,89,0.02,,,0.02,WUHU216HW,2013-02-09 14:22:00,
2013-02-09 06:28:00,38.9,35.9,30.20,ENE,68,0.0,0.0,89,0.01,,,0.02,WUHU216HW,2013-02-09 14:28:00,
2013-02-09 06:33:00,39.1,36.1,30.21,ENE,68,0.0,0.0,89,0.01,,,0.02,WUHU216HW,2013-02-09 14:33:00,
2013-02-09 06:38:00,39.2,36.5,30.21,ENE,68,0.0,0.0,90,0.01,,,0.02,WUHU216HW,2013-02-09 14:38:00,
2013-02-09 06:43:00,39.2,36.5,30.21,ENE,68,0.0,0.0,90,0.01,,,0.02,WUHU216HW,2013-02-09 14:43:00,
2013-02-09 06:48:00,39.2,36.5,30.21,ENE,68,0.0,0.2,90,0.01,,,0.02,WUHU216HW,2013-02-09 14:48:00,
2013-02-09 06:53:00,39.2,36.5,30.21,ENE,68,0.0,0.2,90,0.01,,,0.02,WUHU216HW,2013-02-09 14:53:00,
2013-02-09 06:58:00,39.2,36.5,30.21,East,90,0.0,0.0,90,0.01,,,0.02,WUHU216HW,2013-02-09 14:58:00,
2013-02-09 07:03:00,39.2,36.5,30.21,East,90,0.0,0.0,90,0.01,,,0.02,WUHU216HW,2013-02-09 15:03:00,
2013-02-09 07:08:00,39.4,36.7,30.21,ESE,113,0.0,0.2,90,0.01,,,0.02,WUHU216HW,2013-02-09 15:08:00,
2013-02-09 07:13:00,39.4,36.7,30.21,ESE,113,0.0,0.2,90,0.00,,,0.02,WUHU216HW,2013-02-09 15:13:00,
2013-02-09 07:18:00,39.4,36.7,30.21,ESE,113,0.0,0.4,90,0.00,,,0.02,WUHU216HW,2013-02-09 15:18:00,
2013-02-09 07:24:00,39.4,36.7,30.21,SSE,158,0.0,1.1,90,0.01,,,0.03,WUHU216HW,2013-02-09 15:24:00,
2013-02-09 07:29:00,39.4,36.7,30.21,SSE,158,0.4,1.8,90,0.01,,,0.03,WUHU216HW,2013-02-09 15:29:00,
2013-02-09 07:34:00,39.4,36.7,30.21,SE,135,0.9,1.8,90,0.01,,,0.03,WUHU216HW,2013-02-09 15:34:00,
2013-02-09 07:39:00,39.4,36.7,30.21,SSE,158,0.7,1.8,90,0.01,,,0.03,WUHU216HW,2013-02-09 15:39:00,
2013-02-09 07:44:00,39.6,36.9,30.21,SSE,158,1.6,1.6,90,0.01,,,0.03,WUHU216HW,2013-02-09 15:44:00,
2013-02-09 07:49:00,39.6,36.9,30.20,SE,135,0.7,1.6,90,0.01,,,0.03,WUHU216HW,2013-02-09 15:49:00,
2013-02-09 07:54:00,39.6,36.9,30.20,SSE,158,0.4,2.9,90,0.01,,,0.03,WUHU216HW,2013-02-09 15:54:00,
2013-02-09 07:59:00,39.4,36.7,30.21,ESE,113,1.3,2.9,90,0.01,,,0.03,WUHU216HW,2013-02-09 15:59:00,
2013-02-09 08:04:00,39.4,36.7,30.21,SSE,158,0.2,2.2,90,0.01,,,0.03,WUHU216HW,2013-02-09 16:04:00,
2013-02-09 08:09:00,39.4,36.7,30.21,SE,135,1.8,2.2,90,0.01,,,0.03,WUHU216HW,2013-02-09 16:09:00,
2013-02-09 08:14:00,39.4,36.7,30.21,SE,135,2.2,2.5,90,0.01,,,0.03,WUHU216HW,2013-02-09 16:14:00,
2013-02-09 08:19:00,39.6,36.9,30.21,SE,135,0.0,2.5,90,0.01,,,0.03,WUHU216HW,2013-02-09 16:19:00,
2013-02-09 08:25:00,39.8,37.1,30.21,SSE,158,0.7,1.3,90,0.00,,,0.03,WUHU216HW,2013-02-09 16:25:00,
2013-02-09 08:30:00,40.0,37.3,30.21,SSE,158,0.0,1.3,90,0.00,,,0.03,WUHU216HW,2013-02-09 16:30:00,
2013-02-09 08:35:00,40.0,37.3,30.21,SSE,158,0.7,2.0,90,0.00,,,0.03,WUHU216HW,2013-02-09 16:35:00,
2013-02-09 08:40:00,40.0,37.3,30.21,SSE,158,1.1,2.0,90,0.00,,,0.03,WUHU216HW,2013-02-09 16:40:00,
2013-02-09 08:45:00,40.3,37.6,30.20,ESE,113,0.4,1.8,90,0.00,,,0.03,WUHU216HW,2013-02-09 16:45:00,
2013-02-09 08:50:00,40.7,38.0,30.21,SE,135,0.7,1.6,90,0.00,,,0.03,WUHU216HW,2013-02-09 16:50:00,
2013-02-09 08:55:00,40.7,38.0,30.21,SE,135,0.0,1.6,90,0.00,,,0.03,WUHU216HW,2013-02-09 16:55:00,
2013-02-09 09:00:00,40.7,38.0,30.21,ENE,68,0.4,1.8,90,0.00,,,0.03,WUHU216HW,2013-02-09 17:00:00,
2013-02-09 09:05:00,40.9,37.9,30.21,NNE,23,0.2,1.8,89,0.00,,,0.03,WUHU216HW,2013-02-09 17:05:00,
2013-02-09 09:10:00,40.9,37.9,30.21,NE,45,0.2,0.9,89,0.00,,,0.03,WUHU216HW,2013-02-09 17:10:00,
2013-02-09 09:15:00,40.9,37.9,30.22,NE,45,0.2,0.9,89,0.00,,,0.03,WUHU216HW,2013-02-09 17:15:00,
2013-02-09 09:20:00,41.0,38.1,30.22,ENE,68,0.2,0.9,89,0.00,,,0.03,WUHU216HW,2013-02-09 17:20:00,
2013-02-09 09:25:00,41.2,38.3,30.22,ESE,113,0.4,0.7,89,0.00,,,0.03,WUHU216HW,2013-02-09 17:25:00,
2013-02-09 09:31:00,41.2,38.3,30.22,ESE,113,0.0,0.7,89,0.00,,,0.03,WUHU216HW,2013-02-09 17:31:00,
2013-02-09 09:36:00,41.4,38.4,30.22,ESE,113,0.0,0.2,89,0.00,,,0.03,WUHU216HW,2013-02-09 17:36:00,
2013-02-09 09:41:00,41.6,38.6,30.22,SE,135,1.1,1.6,89,0.00,,,0.03,WUHU216HW,2013-02-09 17:41:00,
2013-02-09 09:46:00,41.8,38.8,30.22,ESE,113,0.7,1.6,89,0.00,,,0.03,WUHU216HW,2013-02-09 17:46:00,
2013-02-09 09:51:00,41.9,39.0,30.22,ESE,113,0.9,1.3,89,0.00,,,0.03,WUHU216HW,2013-02-09 17:51:00,
2013-02-09 09:56:00,42.1,39.2,30.22,South,180,1.1,1.8,89,0.00,,,0.03,WUHU216HW,2013-02-09 17:56:00,
2013-02-09 10:01:00,42.3,39.3,30.22,SE,135,0.9,2.5,89,0.00,,,0.03,WUHU216HW,2013-02-09 18:01:00,
2013-02-09 10:06:00,42.3,39.0,30.22,SSE,158,0.4,2.5,88,0.00,,,0.03,WUHU216HW,2013-02-09 18:06:00,
2013-02-09 10:11:00,42.5,39.2,30.22,SE,135,0.4,1.8,88,0.00,,,0.03,WUHU216HW,2013-02-09 18:11:00,
2013-02-09 10:16:00,42.7,39.3,30.22,SE,135,0.2,1.3,88,0.00,,,0.03,WUHU216HW,2013-02-09 18:16:00,
2013-02-09 10:21:00,42.7,39.3,30.22,South,180,0.0,0.4,88,0.00,,,0.03,WUHU216HW,2013-02-09 18:21:00,
2013-02-09 10:27:00,42.7,39.3,30.22,South,180,0.0,0.4,88,0.00,,,0.03,WUHU216HW,2013-02-09 18:27:00,
2013-02-09 10:32:00,42.8,39.5,30.22,SSE,158,0.0,0.4,88,0.00,,,0.03,WUHU216HW,2013-02-09 18:32:00,
2013-02-09 10:37:00,42.8,39.5,30.23,ESE,113,0.4,0.4,88,0.00,,,0.03,WUHU216HW,2013-02-09 18:37:00,
2013-02-09 10:42:00,42.8,39.5,30.23,ESE,113,0.4,1.1,88,0.00,,,0.03,WUHU216HW,2013-02-09 18:42:00,
2013-02-09 10:47:00,42.8,39.3,30.23,ESE,113,0.0,1.1,87,0.00,,,0.03,WUHU216HW,2013-02-09 18:47:00,
2013-02-09 10:52:00,43.0,39.4,30.23,ESE,113,0.0,0.4,87,0.00,,,0.03,WUHU216HW,2013-02-09 18:52:00,
2013-02-09 10:57:00,43.0,39.4,30.22,ENE,68,0.4,0.4,87,0.00,,,0.03,WUHU216HW,2013-02-09 18:57:00,
2013-02-09 11:02:00,43.0,39.4,30.22,ENE,68,0.0,0.4,87,0.00,,,0.03,WUHU216HW,2013-02-09 19:02:00,
2013-02-09 11:07:00,43.0,39.4,30.23,East,90,0.0,0.4,87,0.00,,,0.03,WUHU216HW,2013-02-09 19:07:00,
2013-02-09 11:12:00,43.2,39.6,30.23,East,90,0.0,0.7,87,0.00,,,0.03,WUHU216HW,2013-02-09 19:12:00,
2013-02-09 11:18:00,43.2,39.6,30.23,ENE,68,0.2,0.7,87,0.00,,,0.03,WUHU216HW,2013-02-09 19:18:00,
2013-02-09 11:23:00,43.2,39.9,30.22,ENE,68,0.0,0.4,88,0.00,,,0.03,WUHU216HW,2013-02-09 19:23:00,
2013-02-09 11:28:00,43.4,40.1,30.22,ESE,113,0.4,0.4,88,0.01,,,0.04,WUHU216HW,2013-02-09 19:28:00,
2013-02-09 11:33:00,43.6,40.2,30.22,ENE,68,0.0,0.4,88,0.01,,,0.04,WUHU216HW,2013-02-09 19:33:00,
2013-02-09 11:38:00,43.7,40.4,30.22,ENE,68,0.4,0.4,88,0.01,,,0.04,WUHU216HW,2013-02-09 19:38:00,
2013-02-09 11:43:00,43.9,40.6,30.22,NNE,23,0.0,0.7,88,0.01,,,0.04,WUHU216HW,2013-02-09 19:43:00,
2013-02-09 11:48:00,44.1,40.8,30.22,SE,135,0.2,1.1,88,0.01,,,0.04,WUHU216HW,2013-02-09 19:48:00,
2013-02-09 11:53:00,44.3,41.0,30.22,North,0,0.2,1.1,88,0.01,,,0.04,WUHU216HW,2013-02-09 19:53:00,
2013-02-09 11:58:00,44.5,41.1,30.22,NNW,338,0.2,0.4,88,0.01,,,0.04,WUHU216HW,2013-02-09 19:58:00,
2013-02-09 12:03:00,44.6,41.3,30.22,NE,45,0.0,0.9,88,0.01,,,0.04,WUHU216HW,2013-02-09 20:03:00,
2013-02-09 12:08:00,44.6,41.3,30.22,NE,45,0.0,0.9,88,0.01,,,0.04,WUHU216HW,2013-02-09 20:08:00,
2013-02-09 12:13:00,44.3,40.7,30.22,North,0,0.2,0.4,87,0.01,,,0.04,WUHU216HW,2013-02-09 20:13:00,
2013-02-09 12:18:00,44.1,40.5,30.22,North,0,0.0,0.2,87,0.01,,,0.04,WUHU216HW,2013-02-09 20:18:00,
2013-02-09 12:23:00,43.9,40.3,30.22,WSW,248,0.0,0.2,87,0.00,,,0.04,WUHU216HW,2013-02-09 20:23:00,
2013-02-09 12:28:00,43.9,40.3,30.22,NNW,338,0.0,0.2,87,0.00,,,0.04,WUHU216HW,2013-02-09 20:28:00,
2013-02-09 12:33:00,43.9,40.3,30.22,North,0,0.0,1.1,87,0.00,,,0.04,WUHU216HW,2013-02-09 20:33:00,
2013-02-09 12:39:00,44.1,40.5,30.22,North,0,0.0,1.1,87,0.00,,,0.04,WUHU216HW,2013-02-09 20:39:00,
2013-02-09 12:44:00,44.3,40.7,30.22,North,0,0.0,0.2,87,0.00,,,0.04,WUHU216HW,2013-02-09 20:44:00,
2013-02-09 12:49:00,44.3,40.7,30.22,NNW,338,0.0,0.4,87,0.00,,,0.04,WUHU216HW,2013-02-09 20:49:00,
2013-02-09 12:54:00,44.3,40.7,30.22,WNW,293,0.4,1.3,87,0.00,,,0.04,WUHU216HW,2013-02-09 20:54:00,
2013-02-09 12:59:00,44.3,40.7,30.21,ESE,113,0.2,1.3,87,0.00,,,0.04,WUHU216HW,2013-02-09 20:59:00,
2013-02-09 13:04:00,44.3,40.7,30.21,NE,45,0.0,0.7,87,0.00,,,0.04,WUHU216HW,2013-02-09 21:04:00,
2013-02-09 13:09:00,44.5,40.9,30.21,NNE,23,0.4,0.4,87,0.00,,,0.04,WUHU216HW,2013-02-09 21:09:00,
2013-02-09 13:14:00,44.3,40.7,30.21,North,0,0.0,0.7,87,0.00,,,0.04,WUHU216HW,2013-02-09 21:14:00,
2013-02-09 13:19:00,44.1,40.5,30.21,North,0,0.0,0.7,87,0.00,,,0.04,WUHU216HW,2013-02-09 21:19:00,
2013-02-09 13:24:00,44.3,40.7,30.21,WNW,293,0.0,0.9,87,0.00,,,0.04,WUHU216HW,2013-02-09 21:24:00,
2013-02-09 13:29:00,44.6,41.1,30.21,WNW,293,0.0,0.9,87,0.00,,,0.04,WUHU216HW,2013-02-09 21:29:00,
2013-02-09 13:34:00,44.8,41.2,30.21,NW,315,0.4,0.4,87,0.00,,,0.04,WUHU216HW,2013-02-09 21:34:00,
2013-02-09 13:40:00,44.6,41.1,30.21,NW,315,0.0,1.6,87,0.00,,,0.04,WUHU216HW,2013-02-09 21:40:00,
2013-02-09 13:45:00,44.5,40.5,30.21,NNW,338,0.2,1.6,86,0.00,,,0.04,WUHU216HW,2013-02-09 21:45:00,
2013-02-09 13:50:00,44.3,40.3,30.21,NNE,23,0.0,1.1,86,0.00,,,0.04,WUHU216HW,2013-02-09 21:50:00,
2013-02-09 13:55:00,44.3,40.7,30.21,North,0,0.0,1.1,87,0.00,,,0.04,WUHU216HW,2013-02-09 21:55:00,
2013-02-09 14:00:00,44.3,40.3,30.21,North,0,0.4,2.2,86,0.00,,,0.04,WUHU216HW,2013-02-09 22:00:00,
2013-02-09 14:05:00,44.3,40.3,30.20,North,0,0.2,2.2,86,0.00,,,0.04,WUHU216HW,2013-02-09 22:05:00,
2013-02-09 14:10:00,44.3,40.3,30.20,NNE,23,0.0,0.4,86,0.00,,,0.04,WUHU216HW,2013-02-09 22:10:00,
2013-02-09 14:15:00,44.5,40.5,30.20,ENE,68,0.7,1.1,86,0.00,,,0.04,WUHU216HW,2013-02-09 22:15:00,
2013-02-09 14:20:00,44.6,40.7,30.20,North,0,0.0,1.1,86,0.00,,,0.04,WUHU216HW,2013-02-09 22:20:00,
2013-02-09 14:25:00,45.0,41.0,30.20,NNE,23,0.4,1.1,86,0.00,,,0.04,WUHU216HW,2013-02-09 22:25:00,
2013-02-09 14:30:00,45.0,41.0,30.20,North,0,0.0,2.0,86,0.00,,,0.04,WUHU216HW,2013-02-09 22:30:00,
2013-02-09 14:35:00,44.8,40.9,30.20,NNE,23,0.4,2.0,86,0.00,,,0.04,WUHU216HW,2013-02-09 22:35:00,
2013-02-09 14:40:00,45.0,41.0,30.20,ESE,113,0.2,1.3,86,0.00,,,0.04,WUHU216HW,2013-02-09 22:40:00,
2013-02-09 14:45:00,45.0,41.0,30.20,SE,135,0.4,1.3,86,0.00,,,0.04,WUHU216HW,2013-02-09 22:45:00,
2013-02-09 14:51:00,45.2,41.2,30.20,NNE,23,0.0,1.1,86,0.00,,,0.04,WUHU216HW,2013-02-09 22:51:00,
2013-02-09 14:56:00,45.2,41.2,30.20,North,0,0.0,1.1,86,0.00,,,0.04,WUHU216HW,2013-02-09 22:56:00,
2013-02-09 15:01:00,45.0,40.8,30.20,North,0,0.0,0.2,85,0.00,,,0.04,WUHU216HW,2013-02-09 23:01:00,
2013-02-09 15:06:00,45.0,40.8,30.20,North,0,0.0,0.2,85,0.00,,,0.04,WUHU216HW,2013-02-09 23:06:00,
2013-02-09 15:11:00,45.0,40.8,30.21,SE,135,0.7,0.7,85,0.00,,,0.04,WUHU216HW,2013-02-09 23:11:00,
2013-02-09 15:16:00,45.0,40.8,30.21,ESE,113,0.0,1.3,85,0.00,,,0.04,WUHU216HW,2013-02-09 23:16:00,
2013-02-09 15:21:00,45.0,41.0,30.21,ENE,68,0.0,1.3,86,0.00,,,0.04,WUHU216HW,2013-02-09 23:21:00,
2013-02-09 15:26:00,45.0,41.0,30.21,East,90,0.0,0.4,86,0.00,,,0.04,WUHU216HW,2013-02-09 23:26:00,
2013-02-09 15:31:00,45.0,41.0,30.21,East,90,0.0,0.4,86,0.00,,,0.04,WUHU216HW,2013-02-09 23:31:00,
2013-02-09 15:36:00,45.0,40.8,30.21,NE,45,0.0,0.2,85,0.00,,,0.04,WUHU216HW,2013-02-09 23:36:00,
2013-02-09 15:41:00,44.6,40.4,30.21,NNE,23,0.0,0.2,85,0.00,,,0.04,WUHU216HW,2013-02-09 23:41:00,
2013-02-09 15:46:00,44.3,40.3,30.21,NNE,23,0.0,0.2,86,0.00,,,0.04,WUHU216HW,2013-02-09 23:46:00,
2013-02-09 15:51:00,44.5,40.5,30.22,NNE,23,0.0,0.2,86,0.00,,,0.04,WUHU216HW,2013-02-09 23:51:00,
2013-02-09 15:57:00,44.5,40.5,30.22,East,90,0.4,0.4,86,0.00,,,0.04,WUHU216HW,2013-02-09 23:57:00,
2013-02-09 16:02:00,44.5,40.5,30.22,East,90,0.0,0.4,86,0.00,,,0.04,WUHU216HW,2013-02-10 00:02:00,
2013-02-09 16:07:00,44.5,40.5,30.22,SE,135,0.4,0.7,86,0.00,,,0.04,WUHU216HW,2013-02-10 00:07:00,
2013-02-09 16:12:00,44.5,40.5,30.22,ESE,113,0.4,0.7,86,0.00,,,0.04,WUHU216HW,2013-02-10 00:12:00,
2013-02-09 16:17:00,44.3,40.7,30.22,SE,135,0.4,0.9,87,0.00,,,0.04,WUHU216HW,2013-02-10 00:17:00,
2013-02-09 16:22:00,44.5,40.9,30.22,SE,135,0.9,0.9,87,0.00,,,0.04,WUHU216HW,2013-02-10 00:22:00,
2013-02-09 16:27:00,44.3,40.7,30.22,ESE,113,0.0,0.9,87,0.00,,,0.04,WUHU216HW,2013-02-10 00:27:00,
2013-02-09 16:32:00,44.3,40.7,30.22,ESE,113,0.0,0.9,87,0.00,,,0.04,WUHU216HW,2013-02-10 00:32:00,
2013-02-09 16:37:00,44.3,40.7,30.22,ESE,113,0.0,0.4,87,0.00,,,0.04,WUHU216HW,2013-02-10 00:37:00,
2013-02-09 16:42:00,44.3,40.7,30.22,ESE,113,0.0,0.4,87,0.00,,,0.04,WUHU216HW,2013-02-10 00:42:00,
2013-02-09 16:47:00,44.1,40.5,30.22,East,90,0.2,0.4,87,0.00,,,0.04,WUHU216HW,2013-02-10 00:47:00,
2013-02-09 16:52:00,44.1,40.5,30.22,SE,135,0.2,0.7,87,0.00,,,0.04,WUHU216HW,2013-02-10 00:52:00,
2013-02-09 16:57:00,43.9,40.3,30.23,SE,135,0.9,0.9,87,0.00,,,0.04,WUHU216HW,2013-02-10 00:57:00,
2013-02-09 17:02:00,43.9,40.3,30.23,SE,135,0.0,0.9,87,0.00,,,0.04,WUHU216HW,2013-02-10 01:02:00,
2013-02-09 17:07:00,43.9,40.3,30.22,SSE,158,0.0,0.9,87,0.00,,,0.04,WUHU216HW,2013-02-10 01:07:00,
2013-02-09 17:12:00,43.7,40.2,30.23,SE,135,0.0,0.4,87,0.00,,,0.04,WUHU216HW,2013-02-10 01:12:00,
2013-02-09 17:17:00,43.7,40.2,30.23,SE,135,0.0,0.4,87,0.00,,,0.04,WUHU216HW,2013-02-10 01:17:00,
2013-02-09 17:22:00,43.7,40.2,30.23,SE,135,0.0,0.2,87,0.00,,,0.04,WUHU216HW,2013-02-10 01:22:00,
2013-02-09 17:27:00,43.7,40.2,30.23,SE,135,0.0,0.0,87,0.00,,,0.04,WUHU216HW,2013-02-10 01:27:00,
2013-02-09 17:32:00,43.6,40.0,30.23,SE,135,0.0,0.4,87,0.00,,,0.04,WUHU216HW,2013-02-10 01:32:00,
2013-02-09 17:37:00,43.6,40.2,30.23,SE,135,0.0,0.4,88,0.00,,,0.04,WUHU216HW,2013-02-10 01:37:00,
2013-02-09 17:42:00,43.6,40.2,30.23,SE,135,0.0,0.4,88,0.00,,,0.04,WUHU216HW,2013-02-10 01:42:00,
2013-02-09 17:48:00,43.6,40.2,30.23,SE,135,0.0,0.0,88,0.01,,,0.05,WUHU216HW,2013-02-10 01:48:00,
2013-02-09 17:53:00,43.4,40.1,30.23,SE,135,0.0,0.0,88,0.01,,,0.05,WUHU216HW,2013-02-10 01:53:00,
2013-02-09 17:58:00,43.4,40.1,30.23,SE,135,0.0,0.0,88,0.01,,,0.05,WUHU216HW,2013-02-10 01:58:00,
2013-02-09 18:03:00,43.4,40.1,30.23,SSE,158,0.4,0.4,88,0.01,,,0.05,WUHU216HW,2013-02-10 02:03:00,
2013-02-09 18:08:00,43.4,40.1,30.23,South,180,0.0,0.7,88,0.01,,,0.05,WUHU216HW,2013-02-10 02:08:00,
2013-02-09 18:13:00,43.2,39.9,30.23,SSE,158,0.0,0.9,88,0.01,,,0.05,WUHU216HW,2013-02-10 02:13:00,
2013-02-09 18:18:00,43.2,39.6,30.23,SSE,158,0.0,0.9,87,0.01,,,0.05,WUHU216HW,2013-02-10 02:18:00,
2013-02-09 18:23:00,43.2,39.6,30.23,SSE,158,0.0,0.2,87,0.01,,,0.05,WUHU216HW,2013-02-10 02:23:00,
2013-02-09 18:28:00,43.2,39.6,30.23,SE,135,0.0,0.4,87,0.01,,,0.05,WUHU216HW,2013-02-10 02:28:00,
2013-02-09 18:33:00,43.2,39.6,30.23,ENE,68,0.0,0.4,87,0.01,,,0.05,WUHU216HW,2013-02-10 02:33:00,
2013-02-09 18:38:00,43.2,39.6,30.23,ENE,68,0.0,0.2,87,0.01,,,0.05,WUHU216HW,2013-02-10 02:38:00,
2013-02-09 18:43:00,43.2,39.6,30.24,ENE,68,0.0,0.0,87,0.00,,,0.05,WUHU216HW,2013-02-10 02:43:00,
2013-02-09 18:48:00,43.0,39.4,30.23,East,90,0.0,0.0,87,0.00,,,0.05,WUHU216HW,2013-02-10 02:48:00,
2013-02-09 18:53:00,43.0,39.4,30.23,SE,135,0.4,0.7,87,0.00,,,0.05,WUHU216HW,2013-02-10 02:53:00,
2013-02-09 18:58:00,43.2,39.9,30.23,SE,135,0.0,0.7,88,0.00,,,0.05,WUHU216HW,2013-02-10 02:58:00,
2013-02-09 19:03:00,43.2,39.9,30.23,SE,135,0.0,0.4,88,0.00,,,0.05,WUHU216HW,2013-02-10 03:03:00,
2013-02-09 19:08:00,43.0,39.7,30.23,SSE,158,1.1,1.8,88,0.00,,,0.05,WUHU216HW,2013-02-10 03:08:00,
2013-02-09 19:13:00,43.0,39.7,30.23,NNE,23,0.0,1.8,88,0.00,,,0.05,WUHU216HW,2013-02-10 03:13:00,
2013-02-09 19:18:00,42.8,39.5,30.23,NNE,23,0.0,1.1,88,0.00,,,0.05,WUHU216HW,2013-02-10 03:18:00,
2013-02-09 19:23:00,42.7,39.3,30.23,ESE,113,0.4,1.1,88,0.00,,,0.05,WUHU216HW,2013-02-10 03:23:00,
2013-02-09 19:29:00,42.7,39.3,30.23,SE,135,0.0,1.1,88,0.00,,,0.05,WUHU216HW,2013-02-10 03:29:00,
2013-02-09 19:34:00,42.7,39.3,30.23,SE,135,0.0,1.1,88,0.00,,,0.05,WUHU216HW,2013-02-10 03:34:00,
2013-02-09 19:39:00,42.8,39.5,30.23,SW,225,0.0,1.1,88,0.00,,,0.05,WUHU216HW,2013-02-10 03:39:00,
2013-02-09 19:44:00,42.8,39.5,30.23,WSW,248,0.0,0.4,88,0.00,,,0.05,WUHU216HW,2013-02-10 03:44:00,
2013-02-09 19:49:00,42.8,39.5,30.23,WSW,248,0.0,0.4,88,0.00,,,0.05,WUHU216HW,2013-02-10 03:49:00,
2013-02-09 19:54:00,42.8,39.5,30.23,WSW,248,0.0,0.0,88,0.00,,,0.05,WUHU216HW,2013-02-10 03:54:00,
2013-02-09 19:59:00,42.8,39.5,30.23,SSW,203,0.0,0.2,88,0.00,,,0.05,WUHU216HW,2013-02-10 03:59:00,
2013-02-09 20:04:00,42.8,39.5,30.23,SSE,158,0.0,0.7,88,0.00,,,0.05,WUHU216HW,2013-02-10 04:04:00,
2013-02-09 20:09:00,42.8,39.5,30.23,SSW,203,0.2,0.7,88,0.00,,,0.05,WUHU216HW,2013-02-10 04:09:00,
2013-02-09 20:14:00,42.8,39.5,30.24,East,90,0.0,0.4,88,0.00,,,0.05,WUHU216HW,2013-02-10 04:14:00,
2013-02-09 20:19:00,42.8,39.5,30.23,SE,135,0.0,0.4,88,0.00,,,0.05,WUHU216HW,2013-02-10 04:19:00,
2013-02-09 20:24:00,42.8,39.9,30.24,SE,135,0.0,0.2,89,0.00,,,0.05,WUHU216HW,2013-02-10 04:24:00,
2013-02-09 20:29:00,42.8,39.9,30.24,NNE,23,0.0,0.0,89,0.00,,,0.05,WUHU216HW,2013-02-10 04:29:00,
2013-02-09 20:34:00,42.8,39.9,30.24,NNE,23,0.0,0.0,89,0.00,,,0.05,WUHU216HW,2013-02-10 04:34:00,
2013-02-09 20:39:00,42.8,39.9,30.24,NNE,23,0.0,0.0,89,0.00,,,0.05,WUHU216HW,2013-02-10 04:39:00,
2013-02-09 20:44:00,42.7,39.7,30.24,NNE,23,0.0,0.0,89,0.00,,,0.05,WUHU216HW,2013-02-10 04:44:00,
2013-02-09 20:49:00,42.7,39.7,30.24,NNE,23,0.0,0.0,89,0.00,,,0.05,WUHU216HW,2013-02-10 04:49:00,
2013-02-09 20:54:00,42.7,39.7,30.25,NNE,23,0.0,0.0,89,0.00,,,0.05,WUHU216HW,2013-02-10 04:54:00,
2013-02-09 20:59:00,42.7,39.7,30.25,NNE,23,0.0,0.0,89,0.00,,,0.05,WUHU216HW,2013-02-10 04:59:00,
2013-02-09 21:00:00,42.8,39.9,30.25,NNE,23,0.0,0.0,89,0.00,,,0.05,WUHU216HW,2013-02-10 05:00:00,
2013-02-09 21:01:00,42.7,39.7,30.24,NNE,23,0.0,0.0,89,0.00,,,0.05,WUHU216HW,2013-02-10 05:01:00,
2013-02-09 21:06:00,42.8,39.9,30.25,NNE,23,0.0,0.2,89,0.00,,,0.05,WUHU216HW,2013-02-10 05:06:00,
2013-02-09 21:11:00,42.8,39.9,30.25,NNE,23,0.0,0.2,89,0.00,,,0.05,WUHU216HW,2013-02-10 05:11:00,
2013-02-09 21:16:00,42.7,39.7,30.25,NNE,23,0.0,0.0,89,0.00,,,0.05,WUHU216HW,2013-02-10 05:16:00,
2013-02-09 21:21:00,42.7,39.7,30.25,NE,45,0.0,0.2,89,0.00,,,0.05,WUHU216HW,2013-02-10 05:21:00,
2013-02-09 21:26:00,42.7,39.7,30.25,NNE,23,0.0,0.2,89,0.00,,,0.05,WUHU216HW,2013-02-10 05:26:00,
2013-02-09 21:32:00,42.5,39.5,30.25,North,0,0.0,0.0,89,0.00,,,0.05,WUHU216HW,2013-02-10 05:32:00,
2013-02-09 21:37:00,42.5,39.5,30.25,North,0,0.0,0.0,89,0.00,,,0.05,WUHU216HW,2013-02-10 05:37:00,
2013-02-09 21:59:00,42.5,39.5,30.26,North,0,0.0,0.0,89,0.00,,,0.05,WUHU216HW,2013-02-10 05:59:00,
2013-02-09 22:04:00,42.7,39.7,30.26,North,0,0.0,0.0,89,0.00,,,0.05,WUHU216HW,2013-02-10 06:04:00,
2013-02-09 22:09:00,42.5,39.5,30.26,North,0,0.2,0.2,89,0.00,,,0.05,WUHU216HW,2013-02-10 06:09:00,
2013-02-09 22:14:00,42.5,39.5,30.26,NNW,338,0.2,0.2,89,0.00,,,0.05,WUHU216HW,2013-02-10 06:14:00,
2013-02-09 22:19:00,42.5,39.5,30.26,NNW,338,0.0,0.2,89,0.00,,,0.05,WUHU216HW,2013-02-10 06:19:00,
2013-02-09 22:24:00,42.5,39.5,30.26,North,0,0.0,0.2,89,0.00,,,0.05,WUHU216HW,2013-02-10 06:24:00,
2013-02-09 22:29:00,42.5,39.5,30.26,North,0,0.0,0.0,89,0.00,,,0.05,WUHU216HW,2013-02-10 06:29:00,
2013-02-09 22:35:00,42.7,39.7,30.27,North,0,0.0,0.0,89,0.00,,,0.05,WUHU216HW,2013-02-10 06:35:00,
2013-02-09 22:40:00,42.5,39.5,30.27,North,0,0.0,0.0,89,0.00,,,0.05,WUHU216HW,2013-02-10 06:40:00,
2013-02-09 22:45:00,42.5,39.5,30.26,North,0,0.0,0.0,89,0.00,,,0.05,WUHU216HW,2013-02-10 06:45:00,
2013-02-09 22:50:00,42.5,39.5,30.26,ESE,113,0.0,0.7,89,0.00,,,0.05,WUHU216HW,2013-02-10 06:50:00,
2013-02-09 22:55:00,42.5,39.5,30.26,NE,45,0.2,0.7,89,0.00,,,0.05,WUHU216HW,2013-02-10 06:55:00,
2013-02-09 23:00:00,42.5,39.5,30.27,North,0,0.0,0.7,89,0.00,,,0.05,WUHU216HW,2013-02-10 07:00:00,
2013-02-09 23:05:00,42.5,39.5,30.27,North,0,0.0,0.7,89,0.00,,,0.05,WUHU216HW,2013-02-10 07:05:00,
2013-02-09 23:10:00,42.3,39.3,30.27,NNE,23,0.0,0.4,89,0.00,,,0.05,WUHU216HW,2013-02-10 07:10:00,
2013-02-09 23:15:00,42.1,39.2,30.27,North,0,0.2,0.9,89,0.00,,,0.05,WUHU216HW,2013-02-10 07:15:00,
2013-02-09 23:20:00,41.9,39.0,30.27,WNW,293,0.0,0.9,89,0.00,,,0.05,WUHU216HW,2013-02-10 07:20:00,
2013-02-09 23:25:00,41.9,39.2,30.27,NNW,338,0.0,1.6,90,0.00,,,0.05,WUHU216HW,2013-02-10 07:25:00,
2013-02-09 23:31:00,41.9,39.2,30.27,North,0,0.0,1.6,90,0.00,,,0.05,WUHU216HW,2013-02-10 07:31:00,
2013-02-09 23:36:00,41.9,39.2,30.27,East,90,0.0,0.4,90,0.00,,,0.05,WUHU216HW,2013-02-10 07:36:00,
2013-02-09 23:41:00,42.1,39.4,30.27,North,0,0.0,0.4,90,0.00,,,0.05,WUHU216HW,2013-02-10 07:41:00,
2013-02-09 23:46:00,42.1,39.4,30.27,NNW,338,0.0,0.7,90,0.00,,,0.05,WUHU216HW,2013-02-10 07:46:00,
2013-02-09 23:51:00,41.9,39.2,30.27,North,0,0.0,0.7,90,0.00,,,0.05,WUHU216HW,2013-02-10 07:51:00,
2013-02-09 23:56:00,41.8,39.1,30.27,North,0,0.0,0.2,90,0.00,,,0.05,WUHU216HW,2013-02-10 07:56:00,